Time;durP1;ratioP1;P1;durP2;ratioP2;P2;SDS_P1;SDS_P2;PMS_P1;PMS_P2;Temp;Humidity;BMP_temperature;BMP_pressure;BME280_temperature;BME280_humidity;BME280_pressure;Samples;Min_cycle;Max_cycle;Signal;HPM_P1;HPM_P2
2021/04/05 00:00:56;;;;;;;38.60;19.73;;;;;;;6.92;71.55;101414.63;4993153;28;20050;-77
2021/04/05 00:03:26;;;;;;;37.38;19.10;;;;;;;7.20;70.51;101403.94;5008208;28;20053;-73
2021/04/05 00:05:56;;;;;;;;;;;;;;;7.32;69.52;101399.00;5008825;28;20046;-77
2021/04/05 00:08:23;;;;;;;38.38;18.15;;;;;;;7.22;70.12;101392.72;5036268;28;19921;-72
2021/04/05 00:11:09;;;;;;;42.60;18.65;;;;;;;7.00;70.56;101392.97;5050816;28;20060;-74
2021/04/05 00:13:41;;;;;;;45.58;19.85;;;;;;;6.91;71.16;101396.53;5050855;28;20348;-79
2021/04/05 00:16:11;;;;;;;37.80;19.40;;;;;;;6.96;71.28;101393.81;5031277;28;20049;-73
2021/04/05 00:18:38;;;;;;;34.72;17.55;;;;;;;7.10;70.55;101381.19;5050534;28;20048;-76
2021/04/05 00:21:16;;;;;;;42.80;19.08;;;;;;;7.26;69.88;101385.56;5046807;28;20055;-74
2021/04/05 00:23:43;;;;;;;36.50;18.88;;;;;;;7.33;69.62;101384.22;5016919;28;20048;-79
2021/04/05 00:26:10;;;;;;;34.65;18.30;;;;;;;7.53;68.91;101375.94;5049773;28;20395;-73
2021/04/05 00:28:47;;;;;;;41.15;18.77;;;;;;;7.17;69.79;101368.03;5033522;28;20479;-73
2021/04/05 00:31:18;;;;;;;39.22;18.17;;;;;;;7.21;69.54;101369.16;5032574;28;20049;-72
2021/04/05 00:33:45;;;;;;;47.28;19.92;;;;;;;7.36;69.33;101356.25;5050777;28;20045;-77
2021/04/05 00:36:14;;;;;;;36.90;18.00;;;;;;;7.42;69.40;101340.63;5032225;28;20412;-73
2021/04/05 00:38:41;;;;;;;36.47;15.43;;;;;;;7.44;68.94;101349.41;5048732;28;20067;-71
2021/04/05 00:41:14;;;;;;;34.35;16.48;;;;;;;7.51;68.51;101339.78;5048643;28;20053;-75
2021/04/05 00:43:47;;;;;;;35.05;16.80;;;;;;;7.40;68.81;101340.91;5033701;28;20049;-78
2021/04/05 00:46:24;;;;;;;33.58;15.52;;;;;;;7.39;68.42;101339.25;5054152;28;20372;-75
2021/04/05 00:48:54;;;;;;;41.95;17.35;;;;;;;7.57;67.77;101346.06;5054834;28;20417;-75
2021/04/05 00:51:24;;;;;;;;;;;;;;;7.54;67.98;101338.41;5037058;28;20060;-74
2021/04/05 00:53:53;;;;;;;34.20;15.65;;;;;;;7.63;67.04;101334.81;5036668;28;19920;-76
2021/04/05 00:56:24;;;;;;;30.48;15.60;;;;;;;7.53;67.81;101323.88;5053481;28;20060;-70
2021/04/05 00:58:52;;;;;;;43.50;16.88;;;;;;;7.37;68.74;101329.69;5051978;28;20064;-69
2021/04/05 01:01:23;;;;;;;33.92;17.17;;;;;;;7.11;69.75;101326.16;5053580;28;20484;-70
2021/04/05 01:03:51;;;;;;;39.92;17.70;;;;;;;7.11;69.74;101322.59;5041717;28;20068;-74
2021/04/05 01:06:29;;;;;;;39.53;18.30;;;;;;;7.08;69.50;101323.16;5051671;28;20052;-72
2021/04/05 01:09:05;;;;;;;36.83;16.85;;;;;;;7.01;70.14;101322.59;5052780;28;20053;-71
2021/04/05 01:11:32;;;;;;;39.25;18.30;;;;;;;7.20;69.48;101321.75;5053965;28;20041;-77
2021/04/05 01:14:00;;;;;;;37.40;16.92;;;;;;;7.16;69.36;101325.31;5019450;28;20055;-68
2021/04/05 01:16:47;;;;;;;43.08;17.92;;;;;;;7.19;69.78;101325.59;5053800;28;20041;-70
2021/04/05 01:19:14;;;;;;;44.40;17.67;;;;;;;7.02;69.84;101325.06;5052870;28;20052;-73
2021/04/05 01:21:59;;;;;;;32.90;17.58;;;;;;;6.92;69.65;101322.34;5053450;28;20053;-69
2021/04/05 01:24:36;;;;;;;38.30;18.33;;;;;;;6.97;70.17;101330.56;5051971;28;20052;-70
2021/04/05 01:27:06;;;;;;;42.05;18.92;;;;;;;6.79;70.07;101329.19;5053176;28;20056;-70
2021/04/05 01:29:36;;;;;;;40.42;20.30;;;;;;;6.24;72.94;101326.34;5034404;28;20057;-68
2021/04/05 01:32:03;;;;;;;41.83;19.48;;;;;;;6.47;71.77;101317.66;5053401;28;20057;-73
2021/04/05 01:34:30;;;;;;;45.83;18.95;;;;;;;6.33;71.96;101316.53;5053043;28;20053;-72
2021/04/05 01:37:01;;;;;;;41.42;20.63;;;;;;;6.16;73.14;101320.59;5035456;28;20463;-71
2021/04/05 01:39:36;;;;;;;35.40;18.20;;;;;;;6.12;73.49;101323.03;5054297;28;20121;-72
2021/04/05 01:42:04;;;;;;;38.72;18.45;;;;;;;6.08;73.81;101319.22;5050915;28;20136;-71
2021/04/05 01:44:38;;;;;;;36.75;19.60;;;;;;;6.32;72.96;101295.75;5052205;28;20488;-74
2021/04/05 01:47:09;;;;;;;39.45;19.13;;;;;;;6.47;72.59;101281.25;5017746;28;20472;-72
2021/04/05 01:49:40;;;;;;;47.83;20.88;;;;;;;6.43;72.16;101266.47;5032923;28;20100;-69
2021/04/05 01:52:11;;;;;;;41.65;18.92;;;;;;;6.46;72.48;101276.88;5051145;28;20044;-71
2021/04/05 01:54:39;;;;;;;40.03;18.15;;;;;;;6.52;71.96;101270.31;5045138;28;20052;-74
2021/04/05 01:57:10;;;;;;;48.63;18.92;;;;;;;6.47;71.86;101259.34;5050990;28;20057;-71
2021/04/05 01:59:38;;;;;;;47.08;19.33;;;;;;;6.53;72.12;101258.28;5035658;28;20052;-70
2021/04/05 02:02:05;;;;;;;41.97;19.67;;;;;;;6.28;72.20;101253.59;5053000;28;20049;-73
2021/04/05 02:04:35;;;;;;;42.33;18.88;;;;;;;6.18;73.03;101250.03;5053672;28;20395;-73
2021/04/05 02:07:03;;;;;;;40.60;19.85;;;;;;;6.23;73.16;101237.19;5048300;28;20045;-70
2021/04/05 02:09:30;;;;;;;47.28;18.77;;;;;;;6.35;72.38;101232.28;5033606;28;20468;-73
2021/04/05 02:12:00;;;;;;;36.40;17.38;;;;;;;6.45;72.17;101231.47;5051931;28;20064;-75
2021/04/05 02:19:14;;;;;;;38.38;17.98;;;;;;;6.47;72.32;101243.75;5049190;28;20060;-73
2021/04/05 02:22:00;;;;;;;;;;;;;;;6.14;72.83;101233.34;5037439;28;20057;-70
2021/04/05 02:24:26;;;;;;;45.15;18.02;;;;;;;6.16;73.07;101247.56;5051400;28;19928;-73
2021/04/05 02:26:53;;;;;;;41.38;19.10;;;;;;;6.01;73.93;101258.50;5047900;28;20057;-75
2021/04/05 02:33:43;;;;;;;42.75;18.08;;;;;;;5.87;75.59;101235.50;5051916;28;20283;-74
2021/04/05 02:36:15;;;;;;;44.55;20.40;;;;;;;5.87;75.67;101224.56;5054249;28;20052;-75
2021/04/05 02:38:49;;;;;;;41.53;18.58;;;;;;;6.18;74.28;101223.50;5036593;28;20056;-69
2021/04/05 02:41:17;;;;;;;43.20;19.35;;;;;;;6.02;74.76;101224.56;5045221;28;20056;-76
2021/04/05 02:43:47;;;;;;;39.70;17.08;;;;;;;5.98;74.59;101219.94;5054382;28;20052;-73
2021/04/05 02:46:28;;;;;;;38.05;18.40;;;;;;;5.94;75.03;101213.34;5036524;28;20056;-73
2021/04/05 02:49:00;;;;;;;40.97;18.27;;;;;;;6.12;74.03;101213.66;5034571;28;20065;-74
2021/04/05 02:51:28;;;;;;;40.40;19.73;;;;;;;5.94;74.69;101199.69;5049647;28;20306;-73
2021/04/05 02:53:59;;;;;;;43.83;18.73;;;;;;;5.91;75.15;101195.56;5017111;28;20049;-74
2021/04/05 02:56:28;;;;;;;45.28;17.25;;;;;;;6.17;74.64;101191.75;5034153;28;20048;-70
2021/04/05 02:58:56;;;;;;;40.72;17.48;;;;;;;6.15;74.04;101191.25;5034036;28;20052;-74
2021/04/05 03:01:25;;;;;;;37.80;17.15;;;;;;;6.07;74.58;101180.00;5051163;28;20408;-74
2021/04/05 03:03:56;;;;;;;39.67;16.80;;;;;;;6.20;75.08;101188.50;5051337;28;20132;-72
2021/04/05 03:06:41;;;;;;;44.28;16.55;;;;;;;6.26;74.08;101192.88;5035952;28;20258;-78
2021/04/05 03:09:28;;;;;;;39.05;16.52;;;;;;;6.01;74.41;101192.88;5040299;28;20044;-72
2021/04/05 03:11:57;;;;;;;39.83;17.33;;;;;;;5.98;75.05;101200.78;5033278;28;20060;-71
2021/04/05 03:14:25;;;;;;;39.35;15.88;;;;;;;5.84;75.37;101203.22;5029227;28;20049;-69
2021/04/05 03:16:52;;;;;;;38.30;16.42;;;;;;;5.74;75.82;101205.88;5050799;28;20064;-66
2021/04/05 03:19:20;;;;;;;43.55;17.77;;;;;;;5.62;76.17;101210.78;5017304;28;20056;-68
2021/04/05 03:21:48;;;;;;;43.03;17.35;;;;;;;5.68;76.16;101198.78;5051309;28;20614;-70
2021/04/05 03:24:18;;;;;;;35.42;16.65;;;;;;;5.79;76.03;101188.69;5031929;28;20049;-69
2021/04/05 03:26:45;;;;;;;40.67;16.90;;;;;;;5.93;75.29;101185.19;5049680;28;20045;-69
2021/04/05 03:29:14;;;;;;;42.05;16.90;;;;;;;5.97;74.95;101182.72;5012657;28;20048;-68
2021/04/05 03:31:44;;;;;;;39.90;16.42;;;;;;;6.00;74.83;101180.28;5044774;28;20068;-67
2021/04/05 03:34:23;;;;;;;33.75;15.43;;;;;;;6.02;74.34;101186.28;5049628;28;20052;-68
2021/04/05 03:36:57;;;;;;;33.70;15.68;;;;;;;6.22;73.55;101178.13;5031036;28;20076;-66
2021/04/05 03:39:25;;;;;;;39.17;15.48;;;;;;;6.36;72.93;101170.19;5033100;28;20069;-68
2021/04/05 03:42:01;;;;;;;42.33;16.08;;;;;;;6.54;71.79;101167.69;5033116;28;20057;-68
2021/04/05 03:45:26;;;;;;;39.45;15.10;;;;;;;6.28;72.37;101160.59;5050737;28;20061;-70
2021/04/05 03:48:35;;;;;;;32.75;14.18;;;;;;;6.31;72.39;101159.25;5018856;28;20475;-69
2021/04/05 03:51:16;;;;;;;42.42;15.30;;;;;;;5.93;73.52;101154.31;5049203;28;20045;-70
2021/04/05 03:54:09;;;;;;;39.13;14.32;;;;;;;6.24;72.58;101145.81;5050833;28;20060;-68
2021/04/05 03:56:44;;;;;;;31.63;14.13;;;;;;;6.41;72.48;101132.69;5047208;28;20415;-68
2021/04/05 04:03:53;;;;;;;35.80;13.57;;;;;;;6.33;71.80;101113.28;5050822;28;20056;-69
2021/04/05 04:06:30;;;;;;;33.15;13.98;;;;;;;6.52;71.46;101117.88;5034820;28;20048;-67
2021/04/05 04:08:57;;;;;;;29.30;13.77;;;;;;;6.36;71.57;101112.72;5049172;28;20053;-69
2021/04/05 04:11:27;;;;;;;36.58;14.55;;;;;;;6.59;70.85;101107.47;5032261;28;20395;-66
2021/04/05 04:18:40;;;;;;;32.95;12.73;;;;;;;6.21;71.73;101080.72;5052917;28;20048;-69
2021/04/05 04:21:11;;;;;;;37.03;13.75;;;;;;;6.33;71.67;101078.53;5054484;28;20057;-70
2021/04/05 04:23:39;;;;;;;41.35;14.48;;;;;;;6.42;71.50;101078.78;5054557;28;20041;-68
2021/04/05 04:26:11;;;;;;;38.80;13.25;;;;;;;6.40;71.23;101080.97;5036697;28;20052;-70
2021/04/05 04:28:43;;;;;;;33.40;12.65;;;;;;;6.40;71.09;101076.31;5037125;28;20060;-71
2021/04/05 04:35:40;;;;;;;30.83;12.23;;;;;;;6.34;71.74;101063.75;5054630;28;20068;-71
2021/04/05 04:38:08;;;;;;;35.42;13.80;;;;;;;6.35;71.63;101072.75;5053507;28;20085;-72
2021/04/05 04:40:36;;;;;;;29.67;13.30;;;;;;;6.37;71.78;101071.41;5050205;28;20403;-70
2021/04/05 04:43:05;;;;;;;34.45;12.63;;;;;;;6.57;71.26;101079.56;5054614;28;20064;-69
2021/04/05 04:50:01;;;;;;;28.50;13.00;;;;;;;6.36;70.79;101061.53;5053910;28;20056;-70
2021/04/05 04:52:31;;;;;;;31.60;12.20;;;;;;;5.99;72.36;101076.66;5053446;28;20307;-72
2021/04/05 04:55:17;;;;;;;32.70;12.18;;;;;;;5.94;72.72;101082.13;5052198;28;20053;-75
2021/04/05 04:57:44;;;;;;;32.40;12.70;;;;;;;5.68;74.14;101081.28;5035521;28;20059;-75
2021/04/05 05:04:41;;;;;;;36.65;11.95;;;;;;;5.84;74.35;101088.41;5053982;28;20056;-68
2021/04/05 05:07:08;;;;;;;35.33;12.77;;;;;;;5.91;73.80;101082.69;5036540;28;20055;-69
2021/04/05 05:09:35;;;;;;;32.05;12.45;;;;;;;5.80;74.11;101087.28;5054223;28;20052;-75
2021/04/05 05:12:09;;;;;;;32.15;12.60;;;;;;;5.86;74.87;101080.75;5037901;28;20517;-75
2021/04/05 05:19:14;;;;;;;32.97;11.52;;;;;;;5.94;75.01;101066.56;5053285;28;20404;-76
2021/04/05 05:21:47;;;;;;;30.52;11.52;;;;;;;6.00;74.49;101070.91;5050509;28;20068;-75
2021/04/05 05:24:19;;;;;;;26.42;11.20;;;;;;;5.89;74.82;101068.47;5047965;28;20049;-75
2021/04/05 05:26:49;;;;;;;35.80;11.90;;;;;;;5.68;75.43;101064.88;5035407;28;20054;-71
2021/04/05 05:29:21;;;;;;;34.83;14.43;;;;;;;5.60;76.49;101059.94;5052744;28;20045;-70
2021/04/05 05:31:48;;;;;;;33.55;12.45;;;;;;;5.64;76.23;101056.41;5034708;28;20431;-74
2021/04/05 05:34:22;;;;;;;32.47;12.98;;;;;;;5.62;76.34;101049.56;5036525;28;20041;-73
2021/04/05 05:36:52;;;;;;;39.38;13.32;;;;;;;5.89;75.80;101057.53;5051151;28;20060;-70
2021/04/05 05:39:19;;;;;;;40.17;14.10;;;;;;;5.87;75.73;101046.03;5053322;28;20475;-73
2021/04/05 05:42:16;;;;;;;36.83;12.40;;;;;;;5.95;75.07;101051.78;5045727;28;20067;-76
2021/04/05 05:44:42;;;;;;;42.28;13.70;;;;;;;5.64;76.00;101053.69;5051392;28;20053;-77
2021/04/05 05:47:26;;;;;;;28.63;12.85;;;;;;;5.77;76.09;101055.03;5053764;28;20041;-75
2021/04/05 05:50:05;;;;;;;33.72;13.35;;;;;;;5.87;76.70;101057.81;5036216;28;20057;-75
2021/04/05 05:52:44;;;;;;;30.38;12.88;;;;;;;5.71;76.29;101043.28;5052377;28;20079;-67
2021/04/05 05:55:46;;;;;;;31.27;13.60;;;;;;;5.56;76.67;101035.06;5035127;28;20053;-73
2021/04/05 05:58:16;;;;;;;32.13;13.52;;;;;;;5.70;75.97;101038.09;5051481;28;20061;-69
2021/04/05 06:05:20;;;;;;;36.58;12.95;;;;;;;5.70;75.95;101038.09;5052932;28;20045;-74
2021/04/05 06:07:56;;;;;;;29.63;12.65;;;;;;;5.75;75.52;101049.03;5051322;28;20057;-73
2021/04/05 06:11:10;;;;;;;34.90;13.73;;;;;;;5.60;75.38;101046.28;5059933;28;20052;-67
2021/04/05 06:13:40;;;;;;;38.00;14.43;;;;;;;5.62;76.65;101044.94;5051045;28;20052;-72
2021/04/05 06:16:23;;;;;;;32.90;13.82;;;;;;;5.78;75.87;101048.47;5051631;28;20049;-70
2021/04/05 06:18:59;;;;;;;33.55;13.35;;;;;;;5.68;75.61;101041.09;5051996;28;20400;-68
2021/04/05 06:21:34;;;;;;;38.63;15.10;;;;;;;5.35;76.99;101049.00;5051183;28;20113;-68
2021/04/05 06:24:03;;;;;;;34.13;13.48;;;;;;;5.51;77.67;101036.97;5034505;28;20044;-71
2021/04/05 06:26:56;;;;;;;33.92;14.05;;;;;;;5.57;76.36;101035.91;5037982;28;20059;-68
2021/04/05 06:29:37;;;;;;;31.05;13.90;;;;;;;5.46;76.80;101040.53;5050534;28;20067;-70
2021/04/05 06:32:38;;;;;;;35.92;15.07;;;;;;;5.47;77.94;101044.09;5033693;28;20075;-69
2021/04/05 06:35:28;;;;;;;33.80;14.35;;;;;;;5.40;77.90;101043.53;5029583;28;20072;-69
2021/04/05 06:38:02;;;;;;;30.83;14.57;;;;;;;5.80;77.65;101048.19;5051616;28;20056;-68
2021/04/05 06:40:31;;;;;;;29.33;13.82;;;;;;;5.56;76.83;101045.19;5049781;28;20137;-69
2021/04/05 06:43:32;;;;;;;36.17;15.52;;;;;;;5.35;78.13;101043.53;5027023;28;20161;-69
2021/04/05 06:50:46;;;;;;;35.33;13.63;;;;;;;5.62;77.90;101044.09;5051239;28;20045;-68
2021/04/05 06:53:35;;;;;;;32.28;13.77;;;;;;;5.79;77.18;101050.09;5032040;28;20153;-68
2021/04/05 06:56:25;;;;;;;38.38;14.23;;;;;;;5.23;78.77;101051.97;5018858;28;20055;-69
2021/04/05 06:59:04;;;;;;;34.20;14.55;;;;;;;4.85;80.20;101060.59;5027634;28;20060;-68
2021/04/05 07:01:49;;;;;;;33.00;14.65;;;;;;;5.10;81.13;101052.50;5029497;28;20472;-69
2021/04/05 07:04:52;;;;;;;32.53;14.25;;;;;;;4.98;80.51;101051.09;5045784;28;20487;-68
2021/04/05 07:07:37;;;;;;;31.27;13.23;;;;;;;4.99;80.91;101071.81;5058620;28;20060;-76
2021/04/05 07:10:09;;;;;;;35.22;14.48;;;;;;;5.24;81.31;101061.00;5033325;28;20049;-74
2021/04/05 07:12:50;;;;;;;29.25;13.98;;;;;;;5.25;79.77;101068.91;5017130;28;20542;-74
2021/04/05 07:15:26;;;;;;;35.53;15.27;;;;;;;4.96;81.44;101061.44;5033722;28;20053;-74
2021/04/05 07:18:30;;;;;;;31.27;14.23;;;;;;;4.91;81.95;101075.09;5051294;28;20472;-70
2021/04/05 07:21:23;;;;;;;33.22;15.10;;;;;;;5.14;81.96;101069.16;5051094;28;20053;-73
2021/04/05 07:24:02;;;;;;;34.10;15.93;;;;;;;4.97;82.68;101058.44;5035237;28;20049;-67
2021/04/05 07:26:42;;;;;;;34.53;16.10;;;;;;;5.17;82.52;101063.16;5033866;28;20053;-71
2021/04/05 07:29:25;;;;;;;34.42;16.13;;;;;;;5.53;80.51;101038.34;5050020;28;20412;-68
2021/04/05 07:37:09;;;;;;;38.83;15.32;;;;;;;5.72;79.80;101039.44;5051042;28;20048;-69
2021/04/05 07:39:49;;;;;;;39.67;16.48;;;;;;;5.80;80.48;101042.72;5051337;28;20056;-74
2021/04/05 07:42:26;;;;;;;43.33;17.40;;;;;;;5.72;81.49;101039.44;5018050;28;20300;-68
2021/04/05 07:45:02;;;;;;;38.00;17.05;;;;;;;6.11;80.65;101047.09;5048320;28;20067;-70
2021/04/05 07:52:26;;;;;;;38.38;17.42;;;;;;;5.98;81.71;101032.09;5050103;28;20396;-67
2021/04/05 07:54:56;;;;;;;36.00;16.92;;;;;;;6.25;80.74;101035.34;5008888;28;20058;-67
2021/04/05 07:57:36;;;;;;;42.70;18.50;;;;;;;5.88;82.34;101029.38;5009546;28;20444;-68
2021/04/05 08:00:16;;;;;;;40.83;17.15;;;;;;;5.86;83.56;101034.28;4992064;28;20064;-67
2021/04/05 08:03:34;;;;;;;40.13;18.50;;;;;;;5.92;83.75;101035.09;5005648;28;20057;-68
2021/04/05 08:06:07;;;;;;;43.80;18.77;;;;;;;6.02;84.08;101027.72;4931428;29;20058;-66
2021/04/05 08:08:50;;;;;;;44.67;18.90;;;;;;;6.23;84.13;101025.75;4930261;29;20075;-68
2021/04/05 08:11:23;;;;;;;39.20;18.75;;;;;;;6.22;84.10;101026.84;4930793;29;20435;-66
2021/04/05 08:14:07;;;;;;;42.45;18.08;;;;;;;6.27;83.94;101022.19;4930377;29;20047;-72
2021/04/05 08:17:01;;;;;;;43.15;19.98;;;;;;;6.51;83.20;101019.66;4928951;29;20048;-66
2021/04/05 08:19:34;;;;;;;40.42;18.92;;;;;;;6.99;81.63;101005.19;4928039;29;20051;-70
2021/04/05 08:22:11;;;;;;;44.80;18.77;;;;;;;6.97;80.59;100996.44;4930547;29;20522;-67
2021/04/05 08:24:41;;;;;;;46.92;18.80;;;;;;;6.82;80.80;100994.59;4929948;28;20063;-70
2021/04/05 08:27:20;;;;;;;48.00;19.10;;;;;;;7.18;79.99;100999.88;4920179;29;20446;-68
2021/04/05 08:29:55;;;;;;;43.22;18.70;;;;;;;7.18;79.75;100994.41;4930909;29;20563;-69
2021/04/05 08:33:31;;;;;;;43.58;18.17;;;;;;;7.45;78.90;100986.50;4953208;28;20051;-75
2021/04/05 08:36:06;;;;;;;52.30;19.65;;;;;;;7.30;78.92;100994.88;4966927;28;20375;-68
2021/04/05 08:38:47;;;;;;;46.60;18.38;;;;;;;7.50;78.85;100989.22;4968369;28;20095;-67
2021/04/05 08:41:32;;;;;;;46.20;18.08;;;;;;;7.85;77.45;100997.13;4968419;28;20074;-76
2021/04/05 08:44:14;;;;;;;39.47;17.52;;;;;;;7.83;76.91;101005.66;5022383;28;20048;-69
2021/04/05 08:46:42;;;;;;;38.40;18.30;;;;;;;7.78;77.03;101000.22;5015449;28;20048;-68
2021/04/05 08:49:15;;;;;;;41.60;18.20;;;;;;;7.92;77.36;100997.63;4979370;28;20741;-65
2021/04/05 08:51:53;;;;;;;37.17;17.88;;;;;;;8.09;76.99;100998.00;4979694;28;20080;-68
2021/04/05 08:54:27;;;;;;;42.13;17.70;;;;;;;8.00;76.68;101005.22;4984716;28;20180;-70
2021/04/05 08:57:01;;;;;;;45.58;18.42;;;;;;;7.82;77.80;101012.25;4984654;28;20060;-72
2021/04/05 08:59:41;;;;;;;37.15;17.88;;;;;;;7.93;78.40;101005.56;4985362;28;20067;-66
2021/04/05 09:02:33;;;;;;;46.00;18.50;;;;;;;8.15;77.76;101007.00;4969974;28;20359;-68
2021/04/05 09:05:00;;;;;;;42.90;18.45;;;;;;;8.34;76.32;101010.66;5005197;28;20244;-74
2021/04/05 09:08:10;;;;;;;41.63;18.55;;;;;;;8.63;75.64;101006.72;5007692;28;20053;-68
2021/04/05 09:10:48;;;;;;;44.40;18.27;;;;;;;8.68;75.39;101012.16;4929140;28;20667;-72
2021/04/05 09:13:59;;;;;;;41.05;19.48;;;;;;;8.60;75.54;101004.59;4926390;28;20066;-68
2021/04/05 09:17:35;;;;;;;42.97;18.73;;;;;;;8.30;76.37;101017.84;4890174;28;20435;-71
2021/04/05 09:20:53;;;;;;;39.08;17.70;;;;;;;8.55;76.91;101012.06;4848291;29;20209;-71
2021/04/05 09:23:48;;;;;;;49.78;18.08;;;;;;;8.59;76.42;101005.72;4832067;29;20173;-69
2021/04/05 09:26:18;;;;;;;39.10;16.95;;;;;;;8.59;76.38;101013.94;4833389;29;20280;-75
2021/04/05 09:29:07;;;;;;;37.17;18.48;;;;;;;8.64;76.25;101013.88;4832114;29;20813;-73
2021/04/05 09:32:06;;;;;;;42.70;18.08;;;;;;;8.73;76.75;101000.31;4828447;29;20095;-71
2021/04/05 09:39:18;;;;;;;39.10;18.05;;;;;;;9.02;74.46;100990.84;4831048;29;20320;-70
2021/04/05 09:41:54;;;;;;;40.45;18.20;;;;;;;8.77;76.07;100987.63;4842915;29;20064;-70
2021/04/05 09:45:00;;;;;;;39.55;18.10;;;;;;;9.14;75.46;101004.13;4865418;29;20052;-71
2021/04/05 09:48:18;;;;;;;41.30;17.88;;;;;;;8.92;75.44;100996.50;4851031;29;20655;-77
2021/04/05 09:51:58;;;;;;;43.00;18.85;;;;;;;9.04;75.76;101001.53;4827543;29;20064;-67
2021/04/05 09:54:40;;;;;;;44.80;19.27;;;;;;;8.86;76.18;101013.31;4870337;29;20177;-66
2021/04/05 09:57:18;;;;;;;42.17;18.75;;;;;;;8.88;76.30;101000.09;4906052;28;20198;-69
2021/04/05 09:59:59;;;;;;;45.47;19.25;;;;;;;8.83;76.55;100998.25;4911120;28;20054;-66
2021/04/05 10:02:35;;;;;;;40.67;19.25;;;;;;;9.24;76.98;100997.69;4927508;28;20250;-66
2021/04/05 10:09:29;;;;;;;36.08;18.55;;;;;;;9.32;75.19;100991.50;4926569;28;20047;-70
2021/04/05 10:12:05;;;;;;;41.17;17.98;;;;;;;9.52;74.40;100983.75;4925509;28;20244;-71
2021/04/05 10:14:40;;;;;;;31.60;16.90;;;;;;;9.99;73.50;100983.47;4910664;28;20195;-67
2021/04/05 10:17:31;;;;;;;38.17;17.60;;;;;;;10.10;71.71;100975.88;4927290;28;20062;-69
2021/04/05 10:24:41;;;;;;;37.40;17.85;;;;;;;9.64;73.88;100984.09;4907096;28;20843;-67
2021/04/05 10:27:09;;;;;;;34.08;18.10;;;;;;;9.74;73.71;100978.44;4954672;28;20048;-66
2021/04/05 10:29:39;;;;;;;39.45;18.70;;;;;;;9.66;74.05;100978.31;4985164;28;20140;-66
2021/04/05 10:32:15;;;;;;;41.53;17.85;;;;;;;9.88;73.92;100978.47;4969093;28;20053;-66
2021/04/05 10:39:07;;;;;;;35.35;16.80;;;;;;;10.05;72.49;100964.94;4981488;28;20049;-68
2021/04/05 10:41:42;;;;;;;34.28;16.75;;;;;;;10.05;71.98;100964.94;4982570;28;20256;-65
2021/04/05 10:44:12;;;;;;;29.98;15.93;;;;;;;10.27;71.61;100961.53;4950614;28;20171;-66
2021/04/05 10:47:00;;;;;;;30.70;16.42;;;;;;;10.06;71.61;100961.06;4957189;28;20472;-71
2021/04/05 10:54:27;;;;;;;35.15;16.95;;;;;;;10.19;71.12;100963.88;4985387;28;20053;-68
2021/04/05 10:56:59;;;;;;;27.92;13.95;;;;;;;10.04;70.34;100966.06;4952030;28;20046;-70
2021/04/05 10:59:46;;;;;;;24.77;12.95;;;;;;;9.84;70.62;100959.00;4986208;28;20052;-65
2021/04/05 11:03:04;;;;;;;27.10;13.70;;;;;;;10.46;70.59;100965.78;4976774;28;20498;-68
2021/04/05 11:05:34;;;;;;;30.75;14.48;;;;;;;10.34;69.54;100957.22;4990532;28;20518;-69
2021/04/05 11:08:05;;;;;;;32.20;16.08;;;;;;;10.28;70.98;100955.72;4989165;28;20047;-73
2021/04/05 11:10:39;;;;;;;35.75;15.50;;;;;;;10.15;71.08;100956.50;4991222;28;20053;-68
2021/04/05 11:13:13;;;;;;;31.58;14.60;;;;;;;10.18;70.00;100961.44;4972773;28;20046;-68
2021/04/05 11:15:44;;;;;;;35.00;16.38;;;;;;;10.20;70.48;100957.22;4972906;28;20050;-74
2021/04/05 11:18:18;;;;;;;27.58;15.70;;;;;;;9.98;71.84;100965.34;4990427;28;20060;-68
2021/04/05 11:21:05;;;;;;;37.50;17.25;;;;;;;10.02;72.35;100960.84;4988484;28;20054;-68
2021/04/05 11:23:55;;;;;;;36.47;17.08;;;;;;;9.65;74.14;100969.25;4986465;28;20042;-66
2021/04/05 11:26:25;;;;;;;37.13;19.17;;;;;;;9.81;74.37;100975.28;4972264;28;20062;-70
2021/04/05 11:28:57;;;;;;;37.03;18.30;;;;;;;9.82;74.76;100985.16;4990079;28;20058;-69
2021/04/05 11:31:25;;;;;;;28.75;17.42;;;;;;;9.89;74.21;100971.81;4988422;28;20042;-67
2021/04/05 11:34:02;;;;;;;37.65;17.77;;;;;;;10.11;73.99;100964.56;4989136;28;20054;-68
2021/04/05 11:36:52;;;;;;;32.07;17.80;;;;;;;10.08;72.93;100961.56;4965579;28;20047;-66
2021/04/05 11:39:46;;;;;;;37.70;17.92;;;;;;;9.87;73.56;100963.88;4977636;28;20066;-71
2021/04/05 11:42:17;;;;;;;26.48;13.68;;;;;;;9.36;74.85;100978.81;5014683;28;20076;-71
2021/04/05 11:44:50;;;;;;;23.33;11.70;;;;;;;8.99;74.67;101060.13;5030458;28;20469;-69
2021/04/05 11:47:21;;;;;;;17.90;8.68;;;;;;;8.29;77.40;101038.16;5045733;28;20049;-68
2021/04/05 11:49:48;;;;;;;16.52;7.32;;;;;;;8.08;77.18;101053.97;4997588;28;20056;-70
2021/04/05 11:52:40;;;;;;;14.60;4.82;;;;;;;6.97;77.08;101083.25;5013323;28;20048;-69
2021/04/05 11:55:18;;;;;;;16.33;4.97;;;;;;;6.55;79.48;101057.16;5030108;28;20052;-75
2021/04/05 11:57:56;;;;;;;13.97;4.57;;;;;;;6.49;78.82;101074.66;4999656;28;20133;-69
2021/04/05 12:00:28;;;;;;;14.88;4.85;;;;;;;6.54;79.78;101074.63;5014912;28;20488;-67
2021/04/05 12:03:34;;;;;;;15.00;5.63;;;;;;;6.75;79.68;101078.97;5046009;28;20041;-74
2021/04/05 12:10:18;;;;;;;18.73;5.80;;;;;;;6.63;81.74;101091.31;5034942;28;20045;-70
2021/04/05 12:12:53;;;;;;;19.10;5.93;;;;;;;6.31;80.28;101086.19;5032625;28;20051;-69
2021/04/05 12:15:20;;;;;;;21.30;8.60;;;;;;;6.45;80.77;101080.97;5036036;28;20049;-70
2021/04/05 12:17:52;;;;;;;22.20;6.30;;;;;;;6.54;80.41;101085.59;5002706;28;20457;-73
2021/04/05 12:20:28;;;;;;;21.50;6.43;;;;;;;6.29;79.27;101098.50;5037475;28;20041;-71
2021/04/05 12:23:10;;;;;;;22.33;6.57;;;;;;;6.45;78.11;101097.41;5024194;28;20488;-72
2021/04/05 12:25:44;;;;;;;17.70;6.40;;;;;;;6.39;79.25;101091.09;5021142;28;20053;-67
2021/04/05 12:28:16;;;;;;;19.02;6.30;;;;;;;6.32;78.33;101103.41;5023506;28;20056;-70
2021/04/05 12:30:46;;;;;;;21.13;6.72;;;;;;;6.52;78.16;101108.88;5017676;28;20056;-68
2021/04/05 12:33:25;;;;;;;22.23;6.50;;;;;;;6.57;76.87;101095.19;5033451;28;20049;-66
2021/04/05 12:35:55;;;;;;;25.88;6.93;;;;;;;6.66;75.98;101094.31;5015276;28;20057;-67
2021/04/05 12:38:36;;;;;;;21.63;6.80;;;;;;;7.04;74.33;101095.56;5032600;28;20041;-67
2021/04/05 12:41:25;;;;;;;22.52;6.97;;;;;;;6.65;74.09;101106.38;5036983;28;20049;-68
2021/04/05 12:43:55;;;;;;;22.83;7.25;;;;;;;6.82;74.91;101097.81;5004103;28;20049;-68
2021/04/05 12:46:26;;;;;;;21.33;6.93;;;;;;;7.30;73.95;101097.06;5008292;28;20408;-72
2021/04/05 12:49:00;;;;;;;22.40;7.35;;;;;;;7.16;74.13;101093.31;5023755;28;20049;-70
2021/04/05 12:51:34;;;;;;;28.75;7.53;;;;;;;7.23;73.38;101093.81;5025703;28;20042;-69
2021/04/05 12:54:06;;;;;;;22.13;7.88;;;;;;;7.18;73.41;101101.25;5005625;28;20052;-70
2021/04/05 12:56:35;;;;;;;21.95;7.60;;;;;;;7.29;71.98;101100.88;5037012;28;20049;-71
2021/04/05 12:59:03;;;;;;;23.67;7.35;;;;;;;7.02;73.49;101108.69;5040155;28;20049;-72
2021/04/05 13:01:50;;;;;;;23.17;7.50;;;;;;;6.96;73.41;101092.59;5040061;28;20048;-75
2021/04/05 13:04:25;;;;;;;20.38;6.43;;;;;;;6.92;72.85;101100.53;5007467;28;20046;-71
2021/04/05 13:06:57;;;;;;;22.38;8.07;;;;;;;7.04;72.71;101106.50;5019796;28;20041;-69
2021/04/05 13:09:41;;;;;;;24.33;7.57;;;;;;;7.21;73.15;101100.66;5018516;28;20049;-70
2021/04/05 13:12:16;;;;;;;19.00;6.00;;;;;;;7.37;73.00;101100.31;5018433;28;20049;-71
2021/04/05 13:14:56;;;;;;;25.95;6.38;;;;;;;7.37;74.24;101108.53;5035480;28;20046;-70
2021/04/05 13:17:27;;;;;;;16.88;5.15;;;;;;;7.20;75.80;101108.06;5035032;28;20045;-73
2021/04/05 13:20:04;;;;;;;20.40;6.40;;;;;;;7.09;76.51;101106.47;5017955;28;20492;-71
2021/04/05 13:27:07;;;;;;;16.42;5.60;;;;;;;6.78;75.24;101107.72;5052528;28;20056;-71
2021/04/05 13:29:48;;;;;;;15.38;5.68;;;;;;;6.98;74.73;101112.25;5052184;28;20061;-69
2021/04/05 13:32:22;;;;;;;16.17;5.53;;;;;;;7.39;73.68;101105.50;5036454;28;20396;-72